createdAt,value
2023-02-21T08:04:50.637Z,97072.05
2023-02-21T08:07:19.542Z,97065.25
2023-02-21T08:09:52.469Z,97065.11
2023-02-21T08:12:25.102Z,97062.73
2023-02-21T08:14:59.018Z,97061.53
2023-02-21T08:17:33.662Z,97060.77
2023-02-21T08:20:13.981Z,97063.70
2023-02-21T08:23:02.546Z,97052.45
2023-02-21T08:25:36.378Z,97057.89
2023-02-21T08:28:13.780Z,97051.93
2023-02-21T08:30:48.985Z,97047.77
2023-02-21T08:33:38.291Z,97054.67
2023-02-21T08:36:30.492Z,97054.02
2023-02-21T08:39:21.288Z,97051.91
2023-02-21T08:41:53.986Z,97045.32
2023-02-21T08:44:30.857Z,97046.89
2023-02-21T08:47:10.180Z,97056.88
2023-02-21T08:49:52.716Z,97060.27
2023-02-21T08:52:45.698Z,97055.63
2023-02-21T08:55:25.333Z,97058.16
2023-02-21T08:57:57.971Z,97059.29
2023-02-21T09:00:32.979Z,97062.70
2023-02-21T09:03:07.389Z,97066.05
2023-02-21T09:05:45.404Z,97064.66
2023-02-21T09:08:20.963Z,97057.13
2023-02-21T09:10:52.762Z,97061.44
2023-02-21T09:13:30.693Z,97063.06
2023-02-21T09:16:16.601Z,97066.27
2023-02-21T09:19:06.890Z,97062.92
2023-02-21T09:21:57.246Z,97057.94
2023-02-21T09:24:34.841Z,97059.45
2023-02-21T09:27:12.464Z,97056.96
2023-02-21T09:29:47.475Z,97053.56
2023-02-21T09:32:18.330Z,97054.34
2023-02-21T09:34:55.235Z,97059.74
2023-02-21T09:37:39.109Z,97066.04
2023-02-21T09:40:40.318Z,97053.36
2023-02-21T09:43:28.665Z,97051.80
2023-02-21T09:46:19.395Z,97049.45
2023-02-21T09:48:52.290Z,97053.48
2023-02-21T09:51:22.108Z,97048.13
2023-02-21T09:53:58.105Z,97052.79
2023-02-21T09:57:01.288Z,97048.63
2023-02-21T09:59:47.314Z,97044.95
2023-02-21T10:02:27.412Z,97042.82
2023-02-21T10:05:39.012Z,97055.54
2023-02-21T10:08:19.173Z,97044.16
2023-02-21T10:11:31.461Z,97044.44
2023-02-21T10:15:08.227Z,97034.87
2023-02-21T10:18:23.463Z,97035.90
2023-02-21T10:20:54.919Z,97039.70
2023-02-21T10:23:30.914Z,97031.13
2023-02-21T10:26:12.174Z,97030.42
2023-02-21T10:28:47.047Z,97025.58
2023-02-21T10:31:37.099Z,97022.23
2023-02-21T10:34:07.964Z,97027.84
2023-02-21T10:36:36.237Z,97028.46
2023-02-21T10:39:18.723Z,97013.27
2023-02-21T10:41:48.534Z,97018.61
2023-02-21T10:44:25.621Z,97012.48
2023-02-21T10:47:14.295Z,97014.38
2023-02-21T10:49:54.285Z,97006.16
2023-02-21T10:52:22.609Z,97006.52
2023-02-21T10:55:20.029Z,97005.48
2023-02-21T10:58:27.733Z,97002.52
2023-02-21T11:01:16.124Z,96990.30
2023-02-21T11:04:25.673Z,96995.97
2023-02-21T11:07:07.528Z,96979.69
2023-02-21T11:09:51.542Z,96985.47
2023-02-21T11:12:24.837Z,96978.08
2023-02-21T11:14:54.183Z,96982.17
2023-02-21T11:17:25.442Z,96979.51
2023-02-21T11:19:56.583Z,96977.98
2023-02-21T11:22:38.384Z,96981.80
2023-02-21T11:25:39.864Z,96975.66
2023-02-21T11:28:24.936Z,96977.98
2023-02-21T11:31:01.858Z,96976.87
2023-02-21T11:34:04.422Z,96981.94
2023-02-21T11:36:42.803Z,96978.09
2023-02-21T11:39:28.024Z,96978.94
2023-02-21T11:42:04.227Z,96978.96
2023-02-21T11:45:24.812Z,96971.87
2023-02-21T11:48:12.226Z,96975.30
2023-02-21T11:50:54.105Z,96969.02
2023-02-21T11:53:42.865Z,96965.19
2023-02-21T11:56:33.019Z,96972.84
2023-02-21T11:59:44.284Z,96971.89
2023-02-21T12:02:49.400Z,96992.10
2023-02-21T12:06:06.246Z,96995.95
2023-02-21T12:08:46.923Z,96995.03
2023-02-21T12:11:51.086Z,96996.12
2023-02-21T12:15:48.797Z,96998.95
2023-02-21T12:18:53.296Z,96988.43
2023-02-21T12:21:47.848Z,97006.82
2023-02-21T12:25:00.859Z,96994.74
2023-02-21T12:28:14.031Z,96984.73
2023-02-21T12:31:04.124Z,96984.95
2023-02-21T12:34:35.253Z,96990.00
2023-02-21T12:37:36.133Z,96991.44
2023-02-21T12:40:34.824Z,96986.73
2023-02-21T12:44:07.408Z,96991.97
2023-02-21T12:47:03.850Z,97005.58
2023-02-21T12:49:54.396Z,97000.07
2023-02-21T12:52:44.523Z,96996.05
2023-02-21T12:55:27.508Z,96995.16
2023-02-21T12:58:31.357Z,96999.00
2023-02-21T13:01:25.624Z,96998.98
2023-02-21T13:04:29.051Z,97011.81
2023-02-21T13:07:25.777Z,97012.58
2023-02-21T13:10:21.117Z,97023.66
2023-02-21T13:13:15.432Z,97020.79
2023-02-21T13:15:57.746Z,97021.02
2023-02-21T13:18:40.135Z,97023.05
2023-02-21T13:21:49.407Z,97029.46
2023-02-21T13:25:02.144Z,97031.34
2023-02-21T13:28:13.100Z,97034.45
2023-02-21T13:31:08.688Z,97034.52
2023-02-21T13:33:52.924Z,97035.83
2023-02-21T13:36:46.196Z,97032.98
2023-02-21T13:39:37.629Z,97029.27
2023-02-21T13:42:23.189Z,97029.34
2023-02-21T13:45:14.097Z,97026.63
2023-02-21T13:48:23.803Z,97027.66
2023-02-21T13:50:57.563Z,97021.85
2023-02-21T13:53:34.070Z,97023.88
2023-02-21T13:56:19.797Z,97019.46
2023-02-21T13:59:33.225Z,97021.39
2023-02-21T14:02:37.107Z,97017.81
2023-02-21T14:05:11.216Z,97008.84
2023-02-21T14:07:48.161Z,97004.83
2023-02-21T14:10:32.577Z,97007.27
2023-02-21T14:13:08.155Z,97002.05
2023-02-21T14:15:51.282Z,97002.42
2023-02-21T14:18:39.589Z,96993.88
2023-02-21T14:21:49.046Z,96997.27
2023-02-21T14:24:25.910Z,96997.45
2023-02-21T14:29:59.450Z,96995.85
2023-02-21T14:32:50.453Z,96993.76
2023-02-21T14:35:50.722Z,96998.88
2023-02-21T14:38:42.175Z,96994.73
2023-02-21T14:41:53.710Z,96997.60
2023-02-21T14:44:52.859Z,96999.09
2023-02-21T14:48:09.097Z,97000.39
2023-02-21T14:51:50.723Z,97002.52
2023-02-21T14:55:02.634Z,97004.64
2023-02-21T14:57:47.058Z,97004.88
2023-02-21T15:00:48.643Z,97009.25
2023-02-21T15:03:29.144Z,97012.27
2023-02-21T15:06:04.442Z,97015.04
2023-02-21T15:08:44.747Z,97020.38
2023-02-21T15:11:37.776Z,97024.50
2023-02-21T15:14:23.306Z,97022.13
2023-02-21T15:17:18.804Z,97023.51
2023-02-21T15:20:16.412Z,97027.24
2023-02-21T15:23:19.426Z,97024.96
2023-02-21T15:26:32.154Z,97028.13
2023-02-21T15:29:20.089Z,97028.15
2023-02-21T15:31:58.453Z,97032.61
2023-02-21T15:34:41.416Z,97033.16
2023-02-21T15:37:33.372Z,97036.24
2023-02-21T15:40:29.757Z,97042.48
2023-02-21T15:43:34.629Z,97037.86
2023-02-21T15:46:10.303Z,97042.56
2023-02-21T15:48:47.940Z,97044.13
2023-02-21T15:51:40.484Z,97050.44
2023-02-21T15:54:17.704Z,97054.20
2023-02-21T15:57:18.480Z,97054.02
2023-02-21T16:00:29.847Z,97060.95
2023-02-21T16:03:57.178Z,97065.72
2023-02-21T16:06:35.050Z,97071.35
2023-02-21T16:09:19.013Z,97075.05
2023-02-21T16:12:11.218Z,97075.20
2023-02-21T16:15:19.751Z,97076.24
2023-02-21T16:18:00.514Z,97083.51
2023-02-21T16:20:43.878Z,97082.02
2023-02-21T16:23:51.614Z,97091.98
2023-02-21T16:26:45.307Z,97093.17
2023-02-21T16:29:53.829Z,97096.86
